sensor_id;sensor_type;location;lat;lon;timestamp;temperature;humidity
34646;DHT22;20857;47.808;12.482;2023-02-15T00:00:52;-0.90;99.90
34646;DHT22;20857;47.808;12.482;2023-02-15T00:03:20;-1.00;99.90
34646;DHT22;20857;47.808;12.482;2023-02-15T00:05:46;-1.00;99.90
34646;DHT22;20857;47.808;12.482;2023-02-15T00:08:12;-1.10;99.90
34646;DHT22;20857;47.808;12.482;2023-02-15T00:10:37;-1.10;99.90
34646;DHT22;20857;47.808;12.482;2023-02-15T00:13:03;-1.20;99.90
34646;DHT22;20857;47.808;12.482;2023-02-15T00:15:30;-1.40;99.90
34646;DHT22;20857;47.808;12.482;2023-02-15T00:17:56;-1.50;99.90
34646;DHT22;20857;47.808;12.482;2023-02-15T00:20:22;-1.60;99.90
34646;DHT22;20857;47.808;12.482;2023-02-15T00:22:47;-1.70;99.90
34646;DHT22;20857;47.808;12.482;2023-02-15T00:25:13;-1.70;99.90
34646;DHT22;20857;47.808;12.482;2023-02-15T00:27:38;-1.70;99.90
34646;DHT22;20857;47.808;12.482;2023-02-15T00:30:04;-1.80;99.90
34646;DHT22;20857;47.808;12.482;2023-02-15T00:32:31;-1.70;99.90
34646;DHT22;20857;47.808;12.482;2023-02-15T00:34:56;-1.80;99.90
34646;DHT22;20857;47.808;12.482;2023-02-15T00:37:22;-1.90;99.90
34646;DHT22;20857;47.808;12.482;2023-02-15T00:39:47;-1.90;99.90
34646;DHT22;20857;47.808;12.482;2023-02-15T00:42:13;-1.80;99.90
34646;DHT22;20857;47.808;12.482;2023-02-15T00:47:04;-1.80;99.90
34646;DHT22;20857;47.808;12.482;2023-02-15T00:49:29;-1.90;99.90
34646;DHT22;20857;47.808;12.482;2023-02-15T00:51:55;-2.00;99.90
34646;DHT22;20857;47.808;12.482;2023-02-15T00:54:20;-1.90;99.90
34646;DHT22;20857;47.808;12.482;2023-02-15T00:56:46;-1.90;99.90
34646;DHT22;20857;47.808;12.482;2023-02-15T00:59:11;-1.80;99.90
34646;DHT22;20857;47.808;12.482;2023-02-15T01:01:37;-1.70;99.90
34646;DHT22;20857;47.808;12.482;2023-02-15T01:04:02;-1.70;99.90
34646;DHT22;20857;47.808;12.482;2023-02-15T01:06:28;-1.80;99.90
34646;DHT22;20857;47.808;12.482;2023-02-15T01:08:53;-1.90;99.90
34646;DHT22;20857;47.808;12.482;2023-02-15T01:11:20;-2.00;99.90
34646;DHT22;20857;47.808;12.482;2023-02-15T01:13:49;-1.50;99.90
34646;DHT22;20857;47.808;12.482;2023-02-15T01:16:14;-2.10;99.90
34646;DHT22;20857;47.808;12.482;2023-02-15T01:18:40;-2.10;99.90
34646;DHT22;20857;47.808;12.482;2023-02-15T01:21:09;-2.10;99.90
34646;DHT22;20857;47.808;12.482;2023-02-15T01:23:35;-2.10;99.90
34646;DHT22;20857;47.808;12.482;2023-02-15T01:26:03;-2.10;99.90
34646;DHT22;20857;47.808;12.482;2023-02-15T01:28:29;-1.90;99.90
34646;DHT22;20857;47.808;12.482;2023-02-15T01:30:54;-1.90;99.90
34646;DHT22;20857;47.808;12.482;2023-02-15T01:33:19;-2.10;99.90
34646;DHT22;20857;47.808;12.482;2023-02-15T01:35:45;-2.10;99.90
34646;DHT22;20857;47.808;12.482;2023-02-15T01:38:11;-2.20;99.90
34646;DHT22;20857;47.808;12.482;2023-02-15T01:40:37;-2.40;99.90
34646;DHT22;20857;47.808;12.482;2023-02-15T01:43:07;-2.40;99.90
34646;DHT22;20857;47.808;12.482;2023-02-15T01:45:34;-2.40;99.90
34646;DHT22;20857;47.808;12.482;2023-02-15T01:48:01;-2.20;99.90
34646;DHT22;20857;47.808;12.482;2023-02-15T01:55:36;-2.20;99.90
34646;DHT22;20857;47.808;12.482;2023-02-15T01:58:04;-2.20;99.90
34646;DHT22;20857;47.808;12.482;2023-02-15T02:00:30;-2.30;99.90
34646;DHT22;20857;47.808;12.482;2023-02-15T02:02:56;-2.30;99.90
34646;DHT22;20857;47.808;12.482;2023-02-15T02:05:22;-2.20;99.90
34646;DHT22;20857;47.808;12.482;2023-02-15T02:07:48;-2.30;99.90
34646;DHT22;20857;47.808;12.482;2023-02-15T02:10:16;-2.50;99.90
34646;DHT22;20857;47.808;12.482;2023-02-15T02:12:43;-2.70;99.90
34646;DHT22;20857;47.808;12.482;2023-02-15T02:15:09;-2.70;99.90
34646;DHT22;20857;47.808;12.482;2023-02-15T02:17:42;-2.60;99.90
34646;DHT22;20857;47.808;12.482;2023-02-15T02:23:40;-2.50;99.90
34646;DHT22;20857;47.808;12.482;2023-02-15T02:33:40;-2.30;99.90
34646;DHT22;20857;47.808;12.482;2023-02-15T02:36:08;-2.20;99.90
34646;DHT22;20857;47.808;12.482;2023-02-15T02:38:58;-2.20;99.90
34646;DHT22;20857;47.808;12.482;2023-02-15T02:41:41;-2.20;99.90
34646;DHT22;20857;47.808;12.482;2023-02-15T02:46:37;-2.30;99.90
34646;DHT22;20857;47.808;12.482;2023-02-15T02:49:04;-2.30;99.90
34646;DHT22;20857;47.808;12.482;2023-02-15T02:51:30;-2.20;99.90
34646;DHT22;20857;47.808;12.482;2023-02-15T02:53:56;-2.20;99.90
34646;DHT22;20857;47.808;12.482;2023-02-15T02:56:28;-2.20;99.90
34646;DHT22;20857;47.808;12.482;2023-02-15T02:58:57;-2.20;99.90
34646;DHT22;20857;47.808;12.482;2023-02-15T03:01:26;-2.30;99.90
34646;DHT22;20857;47.808;12.482;2023-02-15T03:04:10;-2.40;99.90
34646;DHT22;20857;47.808;12.482;2023-02-15T03:06:39;-2.40;99.90
34646;DHT22;20857;47.808;12.482;2023-02-15T03:09:12;-2.50;99.90
34646;DHT22;20857;47.808;12.482;2023-02-15T03:11:40;-2.50;99.90
34646;DHT22;20857;47.808;12.482;2023-02-15T03:14:06;-2.50;99.90
34646;DHT22;20857;47.808;12.482;2023-02-15T03:16:32;-2.50;99.90
34646;DHT22;20857;47.808;12.482;2023-02-15T03:24:42;-2.50;99.90
34646;DHT22;20857;47.808;12.482;2023-02-15T03:27:10;-2.50;99.90
34646;DHT22;20857;47.808;12.482;2023-02-15T03:29:37;-2.50;99.90
34646;DHT22;20857;47.808;12.482;2023-02-15T03:32:03;-2.60;99.90
34646;DHT22;20857;47.808;12.482;2023-02-15T03:34:30;-2.60;99.90
34646;DHT22;20857;47.808;12.482;2023-02-15T03:36:58;-2.60;99.90
34646;DHT22;20857;47.808;12.482;2023-02-15T03:42:26;-2.50;99.90
34646;DHT22;20857;47.808;12.482;2023-02-15T03:47:26;-2.40;99.90
34646;DHT22;20857;47.808;12.482;2023-02-15T03:49:55;-2.30;99.90
34646;DHT22;20857;47.808;12.482;2023-02-15T03:52:23;-2.20;99.90
34646;DHT22;20857;47.808;12.482;2023-02-15T03:54:50;-2.20;99.90
34646;DHT22;20857;47.808;12.482;2023-02-15T04:00:23;-2.20;99.90
34646;DHT22;20857;47.808;12.482;2023-02-15T04:05:36;-2.40;99.90
34646;DHT22;20857;47.808;12.482;2023-02-15T04:08:02;-2.40;99.90
34646;DHT22;20857;47.808;12.482;2023-02-15T04:10:28;-2.40;99.90
34646;DHT22;20857;47.808;12.482;2023-02-15T04:13:12;-2.60;99.90
34646;DHT22;20857;47.808;12.482;2023-02-15T04:15:37;-2.60;99.90
34646;DHT22;20857;47.808;12.482;2023-02-15T04:18:21;-2.50;99.90
34646;DHT22;20857;47.808;12.482;2023-02-15T04:21:07;-2.50;99.90
34646;DHT22;20857;47.808;12.482;2023-02-15T04:23:51;-2.50;99.90
34646;DHT22;20857;47.808;12.482;2023-02-15T04:26:35;-2.50;99.90
34646;DHT22;20857;47.808;12.482;2023-02-15T04:29:01;-2.60;99.90
34646;DHT22;20857;47.808;12.482;2023-02-15T04:31:26;-2.60;99.90
34646;DHT22;20857;47.808;12.482;2023-02-15T04:33:52;-2.70;99.90
34646;DHT22;20857;47.808;12.482;2023-02-15T04:36:19;-2.70;99.90
34646;DHT22;20857;47.808;12.482;2023-02-15T04:38:44;-2.70;99.90
34646;DHT22;20857;47.808;12.482;2023-02-15T04:41:10;-2.70;99.90
34646;DHT22;20857;47.808;12.482;2023-02-15T04:43:37;-2.80;99.90
34646;DHT22;20857;47.808;12.482;2023-02-15T04:46:02;-2.90;99.90
34646;DHT22;20857;47.808;12.482;2023-02-15T04:48:28;-2.80;99.90
34646;DHT22;20857;47.808;12.482;2023-02-15T04:50:53;-2.90;99.90
34646;DHT22;20857;47.808;12.482;2023-02-15T04:53:19;-2.80;99.90
34646;DHT22;20857;47.808;12.482;2023-02-15T04:55:44;-2.70;99.90
34646;DHT22;20857;47.808;12.482;2023-02-15T04:58:10;-2.50;99.90
34646;DHT22;20857;47.808;12.482;2023-02-15T05:00:35;-2.40;99.90
34646;DHT22;20857;47.808;12.482;2023-02-15T05:03:01;-2.50;99.90
34646;DHT22;20857;47.808;12.482;2023-02-15T05:05:27;-2.50;99.90
34646;DHT22;20857;47.808;12.482;2023-02-15T05:07:52;-2.50;99.90
34646;DHT22;20857;47.808;12.482;2023-02-15T05:10:18;-2.70;99.90
34646;DHT22;20857;47.808;12.482;2023-02-15T05:12:44;-2.60;99.90
34646;DHT22;20857;47.808;12.482;2023-02-15T05:15:09;-2.60;99.90
34646;DHT22;20857;47.808;12.482;2023-02-15T05:17:35;-2.60;99.90
34646;DHT22;20857;47.808;12.482;2023-02-15T05:20:00;-2.60;99.90
34646;DHT22;20857;47.808;12.482;2023-02-15T05:22:26;-2.50;99.90
34646;DHT22;20857;47.808;12.482;2023-02-15T05:24:51;-2.70;99.90
34646;DHT22;20857;47.808;12.482;2023-02-15T05:27:35;-2.70;99.90
34646;DHT22;20857;47.808;12.482;2023-02-15T05:30:20;-2.70;99.90
34646;DHT22;20857;47.808;12.482;2023-02-15T05:32:45;-2.70;99.90
34646;DHT22;20857;47.808;12.482;2023-02-15T05:35:12;-2.70;99.90
34646;DHT22;20857;47.808;12.482;2023-02-15T05:37:38;-2.80;99.90
34646;DHT22;20857;47.808;12.482;2023-02-15T05:40:04;-2.70;99.90
34646;DHT22;20857;47.808;12.482;2023-02-15T05:42:29;-2.70;99.90
34646;DHT22;20857;47.808;12.482;2023-02-15T05:44:55;-2.70;99.90
34646;DHT22;20857;47.808;12.482;2023-02-15T05:47:21;-2.70;99.90
34646;DHT22;20857;47.808;12.482;2023-02-15T05:49:46;-2.60;99.90
34646;DHT22;20857;47.808;12.482;2023-02-15T05:52:12;-2.60;99.90
34646;DHT22;20857;47.808;12.482;2023-02-15T05:54:38;-2.40;99.90
34646;DHT22;20857;47.808;12.482;2023-02-15T05:57:03;-2.30;99.90
34646;DHT22;20857;47.808;12.482;2023-02-15T05:59:29;-2.20;99.90
34646;DHT22;20857;47.808;12.482;2023-02-15T06:01:54;-2.10;99.90
34646;DHT22;20857;47.808;12.482;2023-02-15T06:04:20;-2.10;99.90
34646;DHT22;20857;47.808;12.482;2023-02-15T06:06:45;-2.10;99.90
34646;DHT22;20857;47.808;12.482;2023-02-15T06:09:11;-2.10;99.90
34646;DHT22;20857;47.808;12.482;2023-02-15T06:11:37;-2.10;99.90
34646;DHT22;20857;47.808;12.482;2023-02-15T06:14:03;-2.10;99.90
34646;DHT22;20857;47.808;12.482;2023-02-15T06:16:28;-2.00;99.90
34646;DHT22;20857;47.808;12.482;2023-02-15T06:18:54;-2.00;99.90
34646;DHT22;20857;47.808;12.482;2023-02-15T06:21:20;-2.00;99.90
34646;DHT22;20857;47.808;12.482;2023-02-15T06:23:45;-2.00;99.90
34646;DHT22;20857;47.808;12.482;2023-02-15T06:26:11;-2.10;99.90
34646;DHT22;20857;47.808;12.482;2023-02-15T06:28:36;-2.00;99.90
34646;DHT22;20857;47.808;12.482;2023-02-15T06:31:02;-2.00;99.90
34646;DHT22;20857;47.808;12.482;2023-02-15T06:33:28;-2.10;99.90
34646;DHT22;20857;47.808;12.482;2023-02-15T06:35:55;-2.00;99.90
34646;DHT22;20857;47.808;12.482;2023-02-15T06:38:21;-2.00;99.90
34646;DHT22;20857;47.808;12.482;2023-02-15T06:40:47;-2.00;99.90
34646;DHT22;20857;47.808;12.482;2023-02-15T06:43:12;-1.90;99.90
34646;DHT22;20857;47.808;12.482;2023-02-15T06:45:41;-1.90;99.90
34646;DHT22;20857;47.808;12.482;2023-02-15T06:48:07;-1.90;99.90
34646;DHT22;20857;47.808;12.482;2023-02-15T06:50:33;-2.00;99.90
34646;DHT22;20857;47.808;12.482;2023-02-15T06:52:59;-2.00;99.90
34646;DHT22;20857;47.808;12.482;2023-02-15T06:55:25;-2.00;99.90
34646;DHT22;20857;47.808;12.482;2023-02-15T06:57:50;-2.00;99.90
34646;DHT22;20857;47.808;12.482;2023-02-15T07:00:16;-2.00;99.90
34646;DHT22;20857;47.808;12.482;2023-02-15T07:02:43;-2.00;99.90
34646;DHT22;20857;47.808;12.482;2023-02-15T07:05:08;-1.90;99.90
34646;DHT22;20857;47.808;12.482;2023-02-15T07:07:34;-1.90;99.90
34646;DHT22;20857;47.808;12.482;2023-02-15T07:09:59;-2.10;99.90
34646;DHT22;20857;47.808;12.482;2023-02-15T07:12:25;-2.20;99.90
34646;DHT22;20857;47.808;12.482;2023-02-15T07:15:10;-2.30;99.90
34646;DHT22;20857;47.808;12.482;2023-02-15T07:17:36;-2.30;99.90
34646;DHT22;20857;47.808;12.482;2023-02-15T07:20:09;-2.20;99.90
34646;DHT22;20857;47.808;12.482;2023-02-15T07:22:35;-2.20;99.90
34646;DHT22;20857;47.808;12.482;2023-02-15T07:25:02;-2.20;99.90
34646;DHT22;20857;47.808;12.482;2023-02-15T07:27:28;-2.30;99.90
34646;DHT22;20857;47.808;12.482;2023-02-15T07:29:54;-2.20;99.90
34646;DHT22;20857;47.808;12.482;2023-02-15T07:32:19;-2.40;99.90
34646;DHT22;20857;47.808;12.482;2023-02-15T07:34:45;-2.70;99.90
34646;DHT22;20857;47.808;12.482;2023-02-15T07:37:10;-2.70;99.90
34646;DHT22;20857;47.808;12.482;2023-02-15T07:39:36;-2.70;99.90
34646;DHT22;20857;47.808;12.482;2023-02-15T07:42:01;-2.70;99.90
34646;DHT22;20857;47.808;12.482;2023-02-15T07:44:27;-2.70;99.90
34646;DHT22;20857;47.808;12.482;2023-02-15T07:46:52;-2.80;99.90
34646;DHT22;20857;47.808;12.482;2023-02-15T07:49:17;-2.60;99.90
34646;DHT22;20857;47.808;12.482;2023-02-15T07:51:43;-2.60;99.90
34646;DHT22;20857;47.808;12.482;2023-02-15T07:54:08;-2.50;99.90
34646;DHT22;20857;47.808;12.482;2023-02-15T07:56:34;-2.40;99.90
34646;DHT22;20857;47.808;12.482;2023-02-15T07:58:59;-2.40;99.90
34646;DHT22;20857;47.808;12.482;2023-02-15T08:01:32;-2.30;99.90
34646;DHT22;20857;47.808;12.482;2023-02-15T08:03:58;-2.10;99.90
34646;DHT22;20857;47.808;12.482;2023-02-15T08:06:24;-2.10;99.90
34646;DHT22;20857;47.808;12.482;2023-02-15T08:08:50;-2.10;99.90
34646;DHT22;20857;47.808;12.482;2023-02-15T08:13:54;-2.00;99.90
34646;DHT22;20857;47.808;12.482;2023-02-15T08:16:21;-2.10;99.90
34646;DHT22;20857;47.808;12.482;2023-02-15T08:18:47;-2.20;99.90
34646;DHT22;20857;47.808;12.482;2023-02-15T08:21:13;-2.20;99.90
34646;DHT22;20857;47.808;12.482;2023-02-15T08:23:38;-2.20;99.90
34646;DHT22;20857;47.808;12.482;2023-02-15T08:26:04;-2.30;99.90
34646;DHT22;20857;47.808;12.482;2023-02-15T08:28:30;-2.30;99.90
34646;DHT22;20857;47.808;12.482;2023-02-15T08:31:03;-2.30;99.90
34646;DHT22;20857;47.808;12.482;2023-02-15T08:33:29;-2.20;99.90
34646;DHT22;20857;47.808;12.482;2023-02-15T08:35:54;-2.30;99.90
34646;DHT22;20857;47.808;12.482;2023-02-15T08:38:20;-2.20;99.90
34646;DHT22;20857;47.808;12.482;2023-02-15T08:40:45;-2.10;99.90
34646;DHT22;20857;47.808;12.482;2023-02-15T08:43:11;-1.80;99.90
34646;DHT22;20857;47.808;12.482;2023-02-15T08:45:36;-1.70;99.90
34646;DHT22;20857;47.808;12.482;2023-02-15T08:48:02;-1.80;99.90
34646;DHT22;20857;47.808;12.482;2023-02-15T08:50:27;-1.50;99.90
34646;DHT22;20857;47.808;12.482;2023-02-15T08:52:53;-1.30;99.90
34646;DHT22;20857;47.808;12.482;2023-02-15T08:55:19;-1.00;99.90
34646;DHT22;20857;47.808;12.482;2023-02-15T08:57:44;-1.00;99.90
34646;DHT22;20857;47.808;12.482;2023-02-15T09:00:11;-1.00;99.90
34646;DHT22;20857;47.808;12.482;2023-02-15T09:02:37;-0.90;99.90
34646;DHT22;20857;47.808;12.482;2023-02-15T09:05:02;-0.90;99.90
34646;DHT22;20857;47.808;12.482;2023-02-15T09:07:28;-0.70;99.90
34646;DHT22;20857;47.808;12.482;2023-02-15T09:09:54;-0.60;99.90
34646;DHT22;20857;47.808;12.482;2023-02-15T09:12:20;-0.60;99.90
34646;DHT22;20857;47.808;12.482;2023-02-15T09:14:45;-0.60;99.90
34646;DHT22;20857;47.808;12.482;2023-02-15T09:17:11;-0.80;99.90
34646;DHT22;20857;47.808;12.482;2023-02-15T09:19:36;-1.00;99.90
34646;DHT22;20857;47.808;12.482;2023-02-15T09:22:01;-1.00;99.90
34646;DHT22;20857;47.808;12.482;2023-02-15T09:24:27;-0.90;99.90
34646;DHT22;20857;47.808;12.482;2023-02-15T09:26:56;-1.00;99.90
34646;DHT22;20857;47.808;12.482;2023-02-15T09:29:22;-1.00;99.90
34646;DHT22;20857;47.808;12.482;2023-02-15T09:31:48;-1.10;99.90
34646;DHT22;20857;47.808;12.482;2023-02-15T09:34:15;-1.00;99.90
34646;DHT22;20857;47.808;12.482;2023-02-15T09:36:42;-0.70;99.90
34646;DHT22;20857;47.808;12.482;2023-02-15T09:47:06;-0.10;99.90
34646;DHT22;20857;47.808;12.482;2023-02-15T09:54:44;0.30;99.90
34646;DHT22;20857;47.808;12.482;2023-02-15T09:59:58;0.60;99.90
34646;DHT22;20857;47.808;12.482;2023-02-15T10:18:00;0.50;99.90
34646;DHT22;20857;47.808;12.482;2023-02-15T10:25:41;0.80;99.90
34646;DHT22;20857;47.808;12.482;2023-02-15T10:28:33;0.90;99.90
34646;DHT22;20857;47.808;12.482;2023-02-15T10:31:06;1.10;99.90
34646;DHT22;20857;47.808;12.482;2023-02-15T10:33:38;1.40;99.90
34646;DHT22;20857;47.808;12.482;2023-02-15T10:38:52;1.40;99.90
34646;DHT22;20857;47.808;12.482;2023-02-15T10:41:34;1.20;99.90
34646;DHT22;20857;47.808;12.482;2023-02-15T10:44:46;1.00;99.90
34646;DHT22;20857;47.808;12.482;2023-02-15T10:49:32;1.50;99.90
34646;DHT22;20857;47.808;12.482;2023-02-15T10:54:35;1.70;99.90
34646;DHT22;20857;47.808;12.482;2023-02-15T10:57:15;1.80;99.90
34646;DHT22;20857;47.808;12.482;2023-02-15T11:07:49;1.90;99.90
34646;DHT22;20857;47.808;12.482;2023-02-15T11:13:04;2.00;99.90
34646;DHT22;20857;47.808;12.482;2023-02-15T11:15:30;2.20;99.90
34646;DHT22;20857;47.808;12.482;2023-02-15T11:18:45;2.30;99.90
34646;DHT22;20857;47.808;12.482;2023-02-15T11:20:58;2.10;99.90
34646;DHT22;20857;47.808;12.482;2023-02-15T11:23:25;2.30;99.90
34646;DHT22;20857;47.808;12.482;2023-02-15T11:25:56;2.50;99.90
34646;DHT22;20857;47.808;12.482;2023-02-15T11:28:29;2.50;99.90
34646;DHT22;20857;47.808;12.482;2023-02-15T11:30:55;2.50;99.90
34646;DHT22;20857;47.808;12.482;2023-02-15T11:33:26;2.50;99.90
34646;DHT22;20857;47.808;12.482;2023-02-15T11:36:06;2.50;99.90
34646;DHT22;20857;47.808;12.482;2023-02-15T11:38:34;2.50;99.90
34646;DHT22;20857;47.808;12.482;2023-02-15T11:41:14;2.50;99.90
34646;DHT22;20857;47.808;12.482;2023-02-15T11:43:50;2.50;99.90
34646;DHT22;20857;47.808;12.482;2023-02-15T11:46:16;2.70;99.90
34646;DHT22;20857;47.808;12.482;2023-02-15T11:48:43;2.90;99.90
34646;DHT22;20857;47.808;12.482;2023-02-15T11:51:11;3.20;99.90
34646;DHT22;20857;47.808;12.482;2023-02-15T11:53:38;3.20;99.90
34646;DHT22;20857;47.808;12.482;2023-02-15T11:56:04;3.20;99.90
34646;DHT22;20857;47.808;12.482;2023-02-15T11:58:44;3.20;99.90
34646;DHT22;20857;47.808;12.482;2023-02-15T12:01:20;3.10;99.90
34646;DHT22;20857;47.808;12.482;2023-02-15T12:03:49;3.20;99.90
34646;DHT22;20857;47.808;12.482;2023-02-15T12:08:42;3.40;99.90
34646;DHT22;20857;47.808;12.482;2023-02-15T12:11:09;3.60;99.90
34646;DHT22;20857;47.808;12.482;2023-02-15T12:16:21;3.80;99.90
34646;DHT22;20857;47.808;12.482;2023-02-15T12:18:47;3.80;99.90
34646;DHT22;20857;47.808;12.482;2023-02-15T12:21:23;3.90;99.90
34646;DHT22;20857;47.808;12.482;2023-02-15T12:23:54;4.00;99.90
34646;DHT22;20857;47.808;12.482;2023-02-15T12:26:30;4.20;99.90
34646;DHT22;20857;47.808;12.482;2023-02-15T12:28:59;4.40;99.90
34646;DHT22;20857;47.808;12.482;2023-02-15T12:33:59;4.50;99.90
34646;DHT22;20857;47.808;12.482;2023-02-15T12:36:29;4.50;99.90
34646;DHT22;20857;47.808;12.482;2023-02-15T12:41:37;4.80;99.90
34646;DHT22;20857;47.808;12.482;2023-02-15T12:44:21;4.80;99.90
34646;DHT22;20857;47.808;12.482;2023-02-15T12:49:24;4.90;99.90
34646;DHT22;20857;47.808;12.482;2023-02-15T12:51:50;4.90;99.90
34646;DHT22;20857;47.808;12.482;2023-02-15T12:54:28;5.00;99.90
34646;DHT22;20857;47.808;12.482;2023-02-15T12:56:54;5.10;99.90
34646;DHT22;20857;47.808;12.482;2023-02-15T12:59:19;5.20;99.90
34646;DHT22;20857;47.808;12.482;2023-02-15T13:01:46;5.20;99.90
34646;DHT22;20857;47.808;12.482;2023-02-15T13:04:19;5.30;99.90
34646;DHT22;20857;47.808;12.482;2023-02-15T13:06:49;5.40;99.90
34646;DHT22;20857;47.808;12.482;2023-02-15T13:11:48;5.70;99.90
34646;DHT22;20857;47.808;12.482;2023-02-15T13:14:18;6.00;99.90
34646;DHT22;20857;47.808;12.482;2023-02-15T13:16:45;6.10;99.90
34646;DHT22;20857;47.808;12.482;2023-02-15T13:19:15;6.10;99.90
34646;DHT22;20857;47.808;12.482;2023-02-15T13:21:43;6.30;99.90
34646;DHT22;20857;47.808;12.482;2023-02-15T13:26:38;6.30;99.90
34646;DHT22;20857;47.808;12.482;2023-02-15T13:29:06;6.20;99.90
34646;DHT22;20857;47.808;12.482;2023-02-15T13:31:33;6.10;99.90
34646;DHT22;20857;47.808;12.482;2023-02-15T13:34:04;6.00;99.90
34646;DHT22;20857;47.808;12.482;2023-02-15T13:39:24;5.90;99.90
34646;DHT22;20857;47.808;12.482;2023-02-15T13:52:30;6.70;99.90
34646;DHT22;20857;47.808;12.482;2023-02-15T14:00:02;6.80;99.90
34646;DHT22;20857;47.808;12.482;2023-02-15T14:10:38;7.70;99.90
34646;DHT22;20857;47.808;12.482;2023-02-15T14:16:02;7.70;99.90
34646;DHT22;20857;47.808;12.482;2023-02-15T14:18:48;7.60;99.90
34646;DHT22;20857;47.808;12.482;2023-02-15T14:21:32;7.60;99.90
34646;DHT22;20857;47.808;12.482;2023-02-15T14:29:18;7.60;99.90
34646;DHT22;20857;47.808;12.482;2023-02-15T14:31:47;7.80;99.90
34646;DHT22;20857;47.808;12.482;2023-02-15T14:34:56;8.30;99.90
34646;DHT22;20857;47.808;12.482;2023-02-15T14:37:03;8.60;99.90
34646;DHT22;20857;47.808;12.482;2023-02-15T14:45:04;8.70;99.90
34646;DHT22;20857;47.808;12.482;2023-02-15T14:47:37;8.50;99.90
34646;DHT22;20857;47.808;12.482;2023-02-15T14:53:49;7.90;99.90
34646;DHT22;20857;47.808;12.482;2023-02-15T14:55:43;7.70;99.90
34646;DHT22;20857;47.808;12.482;2023-02-15T14:58:12;7.50;99.90
34646;DHT22;20857;47.808;12.482;2023-02-15T15:00:39;7.70;99.90
34646;DHT22;20857;47.808;12.482;2023-02-15T15:03:12;9.90;99.90
34646;DHT22;20857;47.808;12.482;2023-02-15T15:05:50;8.50;99.90
34646;DHT22;20857;47.808;12.482;2023-02-15T15:08:28;8.50;99.90
34646;DHT22;20857;47.808;12.482;2023-02-15T15:10:54;8.80;99.90
34646;DHT22;20857;47.808;12.482;2023-02-15T15:15:55;8.20;99.90
34646;DHT22;20857;47.808;12.482;2023-02-15T15:18:42;7.70;99.90
34646;DHT22;20857;47.808;12.482;2023-02-15T15:21:09;7.60;99.90
34646;DHT22;20857;47.808;12.482;2023-02-15T15:23:38;7.60;99.90
34646;DHT22;20857;47.808;12.482;2023-02-15T15:26:21;7.20;99.90
34646;DHT22;20857;47.808;12.482;2023-02-15T15:41:25;5.90;99.90
34646;DHT22;20857;47.808;12.482;2023-02-15T15:49:00;5.30;99.90
34646;DHT22;20857;47.808;12.482;2023-02-15T15:51:29;6.00;99.90
34646;DHT22;20857;47.808;12.482;2023-02-15T15:53:55;5.10;99.90
34646;DHT22;20857;47.808;12.482;2023-02-15T15:56:40;5.00;99.90
34646;DHT22;20857;47.808;12.482;2023-02-15T15:59:11;4.80;99.90
34646;DHT22;20857;47.808;12.482;2023-02-15T16:01:41;4.60;99.90
34646;DHT22;20857;47.808;12.482;2023-02-15T16:04:10;5.10;99.90
34646;DHT22;20857;47.808;12.482;2023-02-15T16:06:37;4.30;99.90
34646;DHT22;20857;47.808;12.482;2023-02-15T16:09:13;4.10;99.90
34646;DHT22;20857;47.808;12.482;2023-02-15T16:11:40;4.00;99.90
34646;DHT22;20857;47.808;12.482;2023-02-15T16:14:13;3.80;99.90
34646;DHT22;20857;47.808;12.482;2023-02-15T16:16:40;3.80;99.90
34646;DHT22;20857;47.808;12.482;2023-02-15T16:19:06;3.70;99.90
34646;DHT22;20857;47.808;12.482;2023-02-15T16:21:40;3.60;99.90
34646;DHT22;20857;47.808;12.482;2023-02-15T16:29:26;3.30;99.90
34646;DHT22;20857;47.808;12.482;2023-02-15T16:31:59;3.30;99.90
34646;DHT22;20857;47.808;12.482;2023-02-15T16:34:25;3.10;99.90
34646;DHT22;20857;47.808;12.482;2023-02-15T16:37:12;3.00;99.90
34646;DHT22;20857;47.808;12.482;2023-02-15T16:39:40;2.90;99.90
34646;DHT22;20857;47.808;12.482;2023-02-15T16:42:06;2.70;99.90
34646;DHT22;20857;47.808;12.482;2023-02-15T16:44:31;2.50;99.90
34646;DHT22;20857;47.808;12.482;2023-02-15T16:46:58;2.40;99.90
34646;DHT22;20857;47.808;12.482;2023-02-15T16:49:25;2.40;99.90
34646;DHT22;20857;47.808;12.482;2023-02-15T16:51:58;2.30;99.90
34646;DHT22;20857;47.808;12.482;2023-02-15T16:54:24;2.20;99.90
34646;DHT22;20857;47.808;12.482;2023-02-15T16:56:51;2.10;99.90
34646;DHT22;20857;47.808;12.482;2023-02-15T17:00:02;2.00;99.90
34646;DHT22;20857;47.808;12.482;2023-02-15T17:02:05;1.90;99.90
34646;DHT22;20857;47.808;12.482;2023-02-15T17:04:32;1.80;99.90
34646;DHT22;20857;47.808;12.482;2023-02-15T17:07:01;1.80;99.90
34646;DHT22;20857;47.808;12.482;2023-02-15T17:09:27;1.60;99.90
34646;DHT22;20857;47.808;12.482;2023-02-15T17:11:53;1.60;99.90
34646;DHT22;20857;47.808;12.482;2023-02-15T17:14:19;1.50;99.90
34646;DHT22;20857;47.808;12.482;2023-02-15T17:16:50;1.40;99.90
34646;DHT22;20857;47.808;12.482;2023-02-15T17:19:23;1.20;99.90
34646;DHT22;20857;47.808;12.482;2023-02-15T17:21:50;1.20;99.90
34646;DHT22;20857;47.808;12.482;2023-02-15T17:24:18;1.10;99.90
34646;DHT22;20857;47.808;12.482;2023-02-15T17:26:44;0.90;99.90
34646;DHT22;20857;47.808;12.482;2023-02-15T17:29:31;1.00;99.90
34646;DHT22;20857;47.808;12.482;2023-02-15T17:31:58;1.10;99.90
34646;DHT22;20857;47.808;12.482;2023-02-15T17:37:10;1.20;99.90
34646;DHT22;20857;47.808;12.482;2023-02-15T17:39:36;1.00;99.90
34646;DHT22;20857;47.808;12.482;2023-02-15T17:42:02;1.00;99.90
34646;DHT22;20857;47.808;12.482;2023-02-15T17:44:27;0.90;99.90
34646;DHT22;20857;47.808;12.482;2023-02-15T17:46:53;0.90;99.90
34646;DHT22;20857;47.808;12.482;2023-02-15T17:49:27;0.80;99.90
34646;DHT22;20857;47.808;12.482;2023-02-15T17:52:00;0.70;99.90
34646;DHT22;20857;47.808;12.482;2023-02-15T17:54:25;0.70;99.90
34646;DHT22;20857;47.808;12.482;2023-02-15T17:57:13;0.60;99.90
34646;DHT22;20857;47.808;12.482;2023-02-15T17:59:39;0.50;99.90
34646;DHT22;20857;47.808;12.482;2023-02-15T18:02:24;0.50;99.90
34646;DHT22;20857;47.808;12.482;2023-02-15T18:05:14;0.40;99.90
34646;DHT22;20857;47.808;12.482;2023-02-15T18:07:58;0.30;99.90
34646;DHT22;20857;47.808;12.482;2023-02-15T18:10:42;0.40;99.90
34646;DHT22;20857;47.808;12.482;2023-02-15T18:13:27;0.30;99.90
34646;DHT22;20857;47.808;12.482;2023-02-15T18:15:52;0.30;99.90
34646;DHT22;20857;47.808;12.482;2023-02-15T18:18:18;0.20;99.90
34646;DHT22;20857;47.808;12.482;2023-02-15T18:20:43;0.10;99.90
34646;DHT22;20857;47.808;12.482;2023-02-15T18:23:13;0.10;99.90
34646;DHT22;20857;47.808;12.482;2023-02-15T18:25:38;0.00;99.90
34646;DHT22;20857;47.808;12.482;2023-02-15T18:28:04;0.00;99.90
34646;DHT22;20857;47.808;12.482;2023-02-15T18:30:30;-0.10;99.90
34646;DHT22;20857;47.808;12.482;2023-02-15T18:32:57;-0.20;99.90
34646;DHT22;20857;47.808;12.482;2023-02-15T18:35:25;-0.10;99.90
34646;DHT22;20857;47.808;12.482;2023-02-15T18:37:51;-0.10;99.90